createdAt,value
2022-12-28T00:01:33.875Z,5.01
2022-12-28T00:03:55.862Z,4.93
2022-12-28T00:06:18.779Z,4.96
2022-12-28T00:08:40.692Z,4.81
2022-12-28T00:11:08.344Z,4.80
2022-12-28T00:13:33.047Z,4.75
2022-12-28T00:15:54.581Z,4.85
2022-12-28T00:18:16.022Z,4.93
2022-12-28T00:20:37.538Z,4.96
2022-12-28T00:22:59.023Z,5.06
2022-12-28T00:25:20.452Z,4.96
2022-12-28T00:27:41.872Z,5.13
2022-12-28T00:30:03.956Z,5.06
2022-12-28T00:32:25.453Z,4.91
2022-12-28T00:34:47.014Z,4.92
2022-12-28T00:37:12.939Z,5.09
2022-12-28T00:39:34.874Z,5.14
2022-12-28T00:41:56.405Z,5.20
2022-12-28T00:44:17.883Z,5.12
2022-12-28T00:46:39.421Z,5.09
2022-12-28T00:49:00.896Z,5.17
2022-12-28T00:51:22.388Z,5.21
2022-12-28T00:53:43.866Z,5.10
2022-12-28T00:56:14.055Z,5.13
2022-12-28T00:58:36.368Z,5.20
2022-12-28T01:00:57.896Z,5.15
2022-12-28T01:03:19.416Z,5.29
2022-12-28T01:05:40.960Z,5.21
2022-12-28T01:08:02.485Z,5.19
2022-12-28T01:10:24.046Z,5.25
2022-12-28T01:12:45.557Z,5.36
2022-12-28T01:15:09.128Z,5.47
2022-12-28T01:17:30.575Z,5.38
2022-12-28T01:19:54.005Z,5.46
2022-12-28T01:22:15.652Z,5.30
2022-12-28T01:24:37.119Z,5.28
2022-12-28T01:26:58.583Z,5.50
2022-12-28T01:29:20.044Z,5.59
2022-12-28T01:31:41.497Z,5.61
2022-12-28T01:34:03.193Z,5.68
2022-12-28T01:36:27.414Z,5.80
2022-12-28T01:38:53.453Z,5.67
2022-12-28T01:41:17.808Z,5.66
2022-12-28T01:43:44.889Z,5.65
2022-12-28T01:46:08.055Z,5.44
2022-12-28T01:48:30.070Z,5.51
2022-12-28T01:50:52.460Z,5.39
2022-12-28T01:53:14.011Z,5.36
2022-12-28T01:55:39.746Z,5.36
2022-12-28T01:58:05.721Z,5.21
2022-12-28T02:00:27.527Z,5.18
2022-12-28T02:03:00.760Z,5.17
2022-12-28T02:05:28.676Z,5.01
2022-12-28T02:08:01.698Z,4.97
2022-12-28T02:10:41.064Z,5.02
2022-12-28T02:13:06.253Z,5.03
2022-12-28T02:15:27.743Z,5.06
2022-12-28T02:17:49.348Z,5.07
2022-12-28T02:20:10.984Z,5.00
2022-12-28T02:22:56.200Z,5.00
2022-12-28T02:25:39.289Z,5.05
2022-12-28T02:28:07.005Z,5.03
2022-12-28T02:30:33.197Z,5.05
2022-12-28T02:32:58.078Z,5.15
2022-12-28T02:35:41.245Z,5.19
2022-12-28T02:38:15.110Z,5.20
2022-12-28T02:41:10.973Z,5.37
2022-12-28T02:43:34.071Z,5.49
2022-12-28T02:46:14.194Z,5.64
2022-12-28T02:49:03.423Z,5.80
2022-12-28T02:51:40.149Z,5.63
2022-12-28T02:54:40.224Z,5.70
2022-12-28T02:57:39.764Z,5.67
2022-12-28T03:00:16.908Z,5.40
2022-12-28T03:03:03.084Z,5.49
2022-12-28T03:06:13.270Z,5.41
2022-12-28T03:08:57.185Z,5.48
2022-12-28T03:11:22.906Z,5.42
2022-12-28T03:14:02.926Z,5.44
2022-12-28T03:16:32.856Z,5.25
2022-12-28T03:19:18.965Z,5.41
2022-12-28T03:22:00.987Z,5.42
2022-12-28T03:24:41.885Z,5.34
2022-12-28T03:27:28.251Z,5.27
2022-12-28T03:30:16.403Z,5.37
2022-12-28T03:32:38.012Z,5.36
2022-12-28T03:34:59.609Z,5.35
2022-12-28T03:37:31.125Z,5.25
2022-12-28T03:40:08.905Z,5.27
2022-12-28T03:43:01.870Z,5.33
2022-12-28T03:45:51.871Z,5.51
2022-12-28T03:48:15.068Z,5.53
2022-12-28T03:50:40.426Z,5.52
2022-12-28T03:53:01.928Z,5.65
2022-12-28T03:55:24.298Z,5.64
2022-12-28T03:57:45.822Z,5.62
2022-12-28T04:00:09.441Z,5.72
2022-12-28T04:02:31.086Z,5.95
2022-12-28T04:04:52.753Z,5.86
2022-12-28T04:07:14.277Z,5.97
2022-12-28T04:09:35.849Z,5.97
2022-12-28T04:11:57.285Z,5.77
2022-12-28T04:14:18.729Z,5.70
2022-12-28T04:16:40.207Z,5.83
2022-12-28T04:19:01.679Z,5.72
2022-12-28T04:21:23.377Z,5.73
2022-12-28T04:23:44.884Z,5.67
2022-12-28T04:26:12.617Z,5.62
2022-12-28T04:28:35.220Z,5.79
2022-12-28T04:30:57.157Z,5.69
2022-12-28T04:33:18.948Z,5.70
2022-12-28T04:35:40.451Z,5.65
2022-12-28T04:38:01.870Z,5.72
2022-12-28T04:40:23.337Z,5.70
2022-12-28T04:42:44.754Z,5.84
2022-12-28T04:45:06.609Z,5.76
2022-12-28T04:47:28.567Z,5.67
2022-12-28T04:49:50.516Z,5.88
2022-12-28T04:52:12.002Z,5.95
2022-12-28T04:54:33.431Z,5.83
2022-12-28T04:56:54.915Z,5.85
2022-12-28T04:59:16.384Z,5.79
2022-12-28T05:01:38.040Z,5.92
2022-12-28T05:04:00.536Z,5.99
2022-12-28T05:06:23.379Z,6.02
2022-12-28T05:08:45.728Z,5.97
2022-12-28T05:11:11.292Z,5.94
2022-12-28T05:13:33.904Z,5.98
2022-12-28T05:15:55.994Z,5.95
2022-12-28T05:18:17.489Z,5.94
2022-12-28T05:20:38.942Z,5.97
2022-12-28T05:23:00.368Z,5.99
2022-12-28T05:25:21.810Z,6.16
2022-12-28T05:27:43.240Z,6.18
2022-12-28T05:30:05.257Z,6.21
2022-12-28T05:32:26.694Z,6.18
2022-12-28T05:34:48.173Z,6.14
2022-12-28T05:37:09.610Z,6.08
2022-12-28T05:39:31.149Z,6.17
2022-12-28T05:41:52.591Z,6.18
2022-12-28T05:44:14.017Z,6.20
2022-12-28T05:46:35.681Z,6.30
2022-12-28T05:48:57.794Z,6.33
2022-12-28T05:51:22.061Z,6.50
2022-12-28T05:53:44.204Z,6.37
2022-12-28T05:56:12.134Z,6.38
2022-12-28T05:58:35.200Z,6.34
2022-12-28T06:01:19.886Z,6.48
2022-12-28T06:03:42.534Z,6.47
2022-12-28T06:06:13.702Z,6.48
2022-12-28T06:08:35.925Z,6.41
2022-12-28T06:11:05.528Z,6.37
2022-12-28T06:13:27.208Z,6.46
2022-12-28T06:15:48.665Z,6.57
2022-12-28T06:18:10.094Z,6.43
2022-12-28T06:20:31.585Z,6.50
2022-12-28T06:22:52.998Z,6.65
2022-12-28T06:25:14.445Z,6.57
2022-12-28T06:27:35.861Z,6.68
2022-12-28T06:29:57.327Z,6.68
2022-12-28T06:32:18.763Z,6.68
2022-12-28T06:34:40.221Z,6.67
2022-12-28T06:37:01.689Z,6.78
2022-12-28T06:39:23.121Z,6.82
2022-12-28T06:41:44.716Z,6.89
2022-12-28T06:44:10.912Z,6.93
2022-12-28T06:46:32.415Z,6.98
2022-12-28T06:48:54.083Z,7.02
2022-12-28T06:51:25.409Z,6.97
2022-12-28T06:53:47.991Z,6.87
2022-12-28T06:56:21.136Z,6.97
2022-12-28T06:58:43.589Z,6.98
2022-12-28T07:01:17.236Z,6.96
2022-12-28T07:03:38.843Z,6.99
2022-12-28T07:06:01.678Z,7.11
2022-12-28T07:08:23.107Z,7.06
2022-12-28T07:10:44.627Z,7.13
2022-12-28T07:13:06.433Z,7.19
2022-12-28T07:15:27.896Z,7.22
2022-12-28T07:17:49.323Z,7.26
2022-12-28T07:20:11.978Z,7.16
2022-12-28T07:22:33.386Z,7.30
2022-12-28T07:24:54.831Z,7.29
2022-12-28T07:27:16.295Z,7.32
2022-12-28T07:29:38.044Z,7.39
2022-12-28T07:31:59.453Z,7.18
2022-12-28T07:34:20.993Z,7.13
2022-12-28T07:36:43.205Z,7.26
2022-12-28T07:39:05.161Z,7.26
2022-12-28T07:41:32.972Z,7.25
2022-12-28T07:43:54.607Z,7.27
2022-12-28T07:46:24.616Z,7.41
2022-12-28T07:48:47.248Z,7.30
2022-12-28T07:51:18.605Z,7.41
2022-12-28T07:53:41.365Z,7.35
2022-12-28T07:56:03.011Z,7.33
2022-12-28T07:58:24.579Z,7.42
2022-12-28T08:00:46.010Z,7.37
2022-12-28T08:03:07.499Z,7.23
2022-12-28T08:05:28.972Z,7.19
2022-12-28T08:07:50.460Z,7.41
2022-12-28T08:10:11.938Z,7.40
2022-12-28T08:12:33.508Z,7.24
2022-12-28T08:14:55.668Z,7.39
2022-12-28T08:17:21.033Z,7.54
2022-12-28T08:19:42.839Z,7.35
2022-12-28T08:22:04.258Z,7.34
2022-12-28T08:24:25.778Z,7.31
2022-12-28T08:26:48.690Z,7.42
2022-12-28T08:29:14.627Z,7.45
2022-12-28T08:31:38.685Z,7.44
2022-12-28T08:34:01.995Z,7.54
2022-12-28T08:36:23.840Z,7.65
2022-12-28T08:38:45.943Z,7.72
2022-12-28T08:41:11.090Z,7.64
2022-12-28T08:43:34.189Z,7.69
2022-12-28T08:46:05.542Z,7.85
2022-12-28T08:48:27.703Z,7.65
2022-12-28T08:50:49.160Z,7.58
2022-12-28T08:53:10.581Z,7.60
2022-12-28T08:55:32.680Z,7.72
2022-12-28T08:57:54.157Z,7.70
2022-12-28T09:00:16.012Z,7.78
2022-12-28T09:02:37.648Z,7.73
2022-12-28T09:04:59.319Z,7.65
2022-12-28T09:07:20.755Z,7.73
2022-12-28T09:09:42.211Z,7.86
2022-12-28T09:12:03.961Z,7.96
2022-12-28T09:14:25.416Z,8.02
2022-12-28T09:16:46.919Z,7.97
2022-12-28T09:19:09.659Z,8.09
2022-12-28T09:21:34.026Z,8.05
2022-12-28T09:23:56.080Z,8.02
2022-12-28T09:26:20.361Z,8.23
2022-12-28T09:28:55.831Z,8.21
2022-12-28T09:31:18.340Z,8.32
2022-12-28T09:34:34.114Z,8.26
2022-12-28T09:36:44.277Z,8.30
2022-12-28T09:39:10.130Z,8.19
2022-12-28T09:41:55.232Z,8.41
2022-12-28T09:44:27.522Z,8.60
2022-12-28T09:46:54.838Z,8.44
2022-12-28T09:49:18.255Z,8.47
2022-12-28T09:51:49.270Z,8.44
2022-12-28T09:54:10.792Z,8.23
2022-12-28T09:56:38.522Z,8.27
2022-12-28T09:59:01.231Z,8.36
2022-12-28T10:01:25.113Z,8.41
2022-12-28T10:03:47.621Z,8.26
2022-12-28T10:06:13.293Z,8.18
2022-12-28T10:08:44.353Z,8.46
2022-12-28T10:11:05.977Z,8.45
2022-12-28T10:16:20.047Z,8.42
2022-12-28T10:18:41.572Z,8.37
2022-12-28T10:21:03.310Z,8.31
2022-12-28T10:23:28.736Z,8.60
2022-12-28T10:25:56.380Z,8.58
2022-12-28T10:28:20.221Z,8.52
2022-12-28T10:31:03.448Z,8.55
2022-12-28T10:33:25.739Z,8.43
2022-12-28T10:35:52.171Z,8.63
2022-12-28T10:38:20.752Z,8.66
2022-12-28T10:40:43.375Z,8.63
2022-12-28T10:43:10.541Z,8.55
2022-12-28T10:45:37.475Z,8.52
2022-12-28T10:47:59.061Z,8.57
2022-12-28T10:50:41.656Z,8.80
2022-12-28T10:53:03.390Z,8.73
2022-12-28T10:55:31.511Z,8.48
2022-12-28T10:58:27.359Z,8.41
2022-12-28T11:00:34.635Z,8.41
2022-12-28T11:02:56.226Z,8.43
2022-12-28T11:05:24.169Z,8.58
2022-12-28T11:07:45.628Z,8.66
2022-12-28T11:10:32.536Z,8.64
2022-12-28T11:12:59.234Z,8.69
2022-12-28T11:15:24.151Z,8.74
2022-12-28T11:18:12.647Z,8.82
2022-12-28T11:20:39.506Z,8.73
2022-12-28T11:23:04.747Z,8.78
2022-12-28T11:25:32.311Z,8.96
2022-12-28T11:27:54.058Z,9.14
2022-12-28T11:30:17.897Z,9.16
2022-12-28T11:32:46.372Z,9.05
2022-12-28T11:35:15.071Z,9.27
2022-12-28T11:37:36.509Z,9.24
2022-12-28T11:39:58.891Z,9.29
2022-12-28T11:42:49.601Z,9.39
2022-12-28T11:45:16.822Z,9.46
2022-12-28T11:47:38.334Z,9.64
2022-12-28T11:50:34.062Z,9.51
2022-12-28T11:52:55.517Z,9.55
2022-12-28T11:55:26.245Z,9.62
2022-12-28T11:57:47.949Z,9.66
2022-12-28T12:00:38.573Z,9.73
2022-12-28T12:03:01.667Z,9.54
2022-12-28T12:05:38.381Z,9.71
2022-12-28T12:07:59.879Z,9.75
2022-12-28T12:10:29.726Z,9.66
2022-12-28T12:12:52.598Z,9.47
2022-12-28T12:15:19.374Z,9.31
2022-12-28T12:17:45.628Z,9.18
2022-12-28T12:20:39.138Z,9.36
2022-12-28T12:23:13.177Z,9.32
2022-12-28T12:25:34.635Z,9.22
2022-12-28T12:28:08.793Z,9.38
2022-12-28T12:30:32.118Z,9.23
2022-12-28T12:33:02.305Z,9.12
2022-12-28T12:35:27.365Z,9.28
2022-12-28T12:37:48.825Z,9.28
2022-12-28T12:40:26.451Z,9.28
2022-12-28T12:42:54.006Z,9.37
2022-12-28T12:45:27.543Z,9.44
2022-12-28T12:48:33.471Z,9.48
2022-12-28T12:51:16.263Z,9.61
2022-12-28T12:54:12.593Z,9.74
2022-12-28T12:56:48.691Z,9.54
2022-12-28T12:59:37.684Z,9.87
2022-12-28T13:02:19.481Z,9.94
2022-12-28T13:04:44.674Z,10.11
2022-12-28T13:07:16.533Z,10.04
2022-12-28T13:09:38.067Z,10.06
2022-12-28T13:12:01.730Z,10.08
2022-12-28T13:14:24.851Z,10.41
2022-12-28T13:16:53.283Z,10.45
2022-12-28T13:19:26.833Z,10.14
2022-12-28T13:21:49.261Z,10.28
2022-12-28T13:24:26.332Z,10.38
2022-12-28T13:26:48.263Z,10.28
2022-12-28T13:29:10.560Z,9.99
2022-12-28T13:31:41.053Z,9.61
2022-12-28T13:34:24.355Z,9.72
2022-12-28T13:36:56.729Z,9.68
2022-12-28T13:39:19.494Z,9.70
2022-12-28T13:41:49.035Z,9.78
2022-12-28T13:44:24.685Z,9.80
2022-12-28T13:46:53.394Z,9.75
2022-12-28T13:49:15.024Z,9.95
2022-12-28T13:51:39.842Z,9.90
2022-12-28T13:54:02.029Z,9.86
2022-12-28T13:56:24.929Z,9.77
2022-12-28T13:58:52.496Z,9.77
2022-12-28T14:01:22.805Z,9.85
2022-12-28T14:03:46.487Z,9.77
2022-12-28T14:06:09.319Z,9.71
2022-12-28T14:08:35.118Z,9.56
2022-12-28T14:10:56.947Z,9.60
2022-12-28T14:13:19.618Z,9.56
2022-12-28T14:15:41.908Z,9.47
2022-12-28T14:18:05.112Z,9.38
2022-12-28T14:20:26.623Z,9.26
2022-12-28T14:22:48.089Z,9.25
2022-12-28T14:25:15.269Z,9.21
2022-12-28T14:27:40.749Z,9.12
2022-12-28T14:30:03.560Z,9.12
2022-12-28T14:32:26.040Z,9.09
2022-12-28T14:34:52.436Z,9.19
2022-12-28T14:37:33.434Z,9.16
2022-12-28T14:40:01.240Z,9.24
2022-12-28T14:42:25.064Z,9.20
2022-12-28T14:44:50.933Z,9.18
2022-12-28T14:47:35.260Z,9.01
2022-12-28T14:50:01.059Z,8.90
2022-12-28T14:52:33.612Z,8.85
2022-12-28T14:54:55.568Z,9.08
2022-12-28T14:57:32.521Z,9.07
2022-12-28T15:00:04.087Z,9.10
2022-12-28T15:02:34.840Z,9.07
2022-12-28T15:05:00.641Z,9.07
2022-12-28T15:07:22.510Z,9.07
2022-12-28T15:09:45.712Z,9.11
2022-12-28T15:12:12.824Z,9.19
2022-12-28T15:14:34.250Z,9.07
2022-12-28T15:16:55.769Z,9.03
2022-12-28T15:19:17.225Z,9.11
2022-12-28T15:21:38.692Z,9.09
2022-12-28T15:24:00.157Z,9.02
2022-12-28T15:26:23.725Z,9.08
2022-12-28T15:28:45.247Z,9.03
2022-12-28T15:31:13.063Z,9.14
2022-12-28T15:33:35.648Z,9.12
2022-12-28T15:36:06.013Z,9.02
2022-12-28T15:38:27.945Z,9.02
2022-12-28T15:40:54.763Z,9.06
2022-12-28T15:43:16.179Z,9.14
2022-12-28T15:45:37.643Z,9.09
2022-12-28T15:47:59.079Z,9.14
2022-12-28T15:50:20.699Z,9.01
2022-12-28T15:52:42.118Z,8.96
2022-12-28T15:55:04.661Z,9.05
2022-12-28T15:57:26.770Z,9.03
2022-12-28T15:59:48.339Z,9.16
2022-12-28T16:02:13.002Z,9.15
2022-12-28T16:04:34.563Z,9.12
2022-12-28T16:06:56.057Z,9.27
2022-12-28T16:09:17.514Z,9.31
2022-12-28T16:11:38.992Z,9.25
2022-12-28T16:14:03.660Z,9.13
2022-12-28T16:16:27.603Z,9.04
2022-12-28T16:18:49.838Z,9.04
2022-12-28T16:21:11.856Z,8.89
2022-12-28T16:23:35.565Z,9.16
2022-12-28T16:25:57.030Z,9.27
2022-12-28T16:28:18.513Z,9.49
2022-12-28T16:30:48.364Z,9.68
2022-12-28T16:33:09.791Z,9.77
2022-12-28T16:35:31.226Z,9.89
2022-12-28T16:37:52.696Z,9.85
2022-12-28T16:40:14.196Z,9.79
2022-12-28T16:42:35.642Z,9.76
2022-12-28T16:44:57.080Z,9.72
2022-12-28T16:47:18.539Z,9.59
2022-12-28T16:49:41.132Z,9.60
2022-12-28T16:52:02.605Z,9.62
2022-12-28T16:54:26.065Z,9.72
2022-12-28T16:56:49.487Z,9.69
2022-12-28T16:59:17.348Z,9.78
2022-12-28T17:01:39.073Z,9.78
2022-12-28T17:04:04.048Z,9.65
2022-12-28T17:06:26.012Z,9.77
2022-12-28T17:08:47.451Z,9.71
2022-12-28T17:11:10.726Z,9.74
2022-12-28T17:13:33.114Z,9.80
2022-12-28T17:15:59.816Z,9.83
2022-12-28T17:18:21.331Z,10.00
2022-12-28T17:20:44.700Z,9.80
2022-12-28T17:23:07.198Z,9.80
2022-12-28T17:25:28.696Z,9.87
2022-12-28T17:27:50.117Z,9.82
2022-12-28T17:30:12.140Z,9.71
2022-12-28T17:32:34.916Z,9.84
2022-12-28T17:34:56.388Z,9.96
2022-12-28T17:37:17.904Z,9.98
2022-12-28T17:39:40.696Z,10.02
2022-12-28T17:42:02.346Z,10.06
2022-12-28T17:44:23.833Z,9.95
2022-12-28T17:46:45.252Z,9.86
2022-12-28T17:49:11.056Z,10.02
2022-12-28T17:51:32.692Z,10.01
2022-12-28T17:53:56.141Z,9.89
2022-12-28T17:56:17.884Z,10.14
2022-12-28T17:58:40.773Z,10.22
2022-12-28T18:01:02.570Z,10.01
2022-12-28T18:03:29.976Z,10.08
2022-12-28T18:05:54.847Z,9.82
2022-12-28T18:08:17.063Z,9.82
2022-12-28T18:10:38.494Z,9.72
2022-12-28T18:12:59.918Z,9.90
2022-12-28T18:15:21.361Z,9.89
2022-12-28T18:17:42.905Z,9.80
2022-12-28T18:20:04.792Z,9.78
2022-12-28T18:22:26.252Z,9.89
2022-12-28T18:24:48.107Z,10.08
2022-12-28T18:27:09.610Z,9.99
2022-12-28T18:29:31.074Z,9.87
2022-12-28T18:31:52.506Z,10.01
2022-12-28T18:34:14.411Z,9.91
2022-12-28T18:36:35.853Z,9.64
2022-12-28T18:38:57.287Z,9.79
2022-12-28T18:41:23.332Z,9.72
2022-12-28T18:43:46.550Z,9.72
2022-12-28T18:46:08.957Z,9.71
2022-12-28T18:48:34.073Z,9.79
2022-12-28T18:51:00.296Z,9.55
2022-12-28T18:53:22.243Z,9.68
2022-12-28T18:55:45.612Z,9.74
2022-12-28T18:58:07.176Z,9.86
2022-12-28T19:00:28.638Z,9.89
2022-12-28T19:02:53.106Z,9.93
2022-12-28T19:05:14.718Z,9.97
2022-12-28T19:07:36.154Z,10.00
2022-12-28T19:10:13.846Z,9.90
2022-12-28T19:12:35.447Z,9.91
2022-12-28T19:14:57.039Z,9.70
2022-12-28T19:17:18.467Z,9.79
2022-12-28T19:19:39.899Z,9.79
2022-12-28T19:22:01.343Z,9.68
2022-12-28T19:24:22.752Z,9.84
2022-12-28T19:26:45.376Z,9.86
2022-12-28T19:29:07.423Z,9.69
2022-12-28T19:31:29.745Z,9.80
2022-12-28T19:33:51.459Z,9.69
2022-12-28T19:36:12.950Z,9.58
2022-12-28T19:38:34.455Z,9.50
2022-12-28T19:40:56.278Z,9.23
2022-12-28T19:43:18.113Z,9.13
2022-12-28T19:45:39.684Z,8.99
2022-12-28T19:48:01.177Z,8.80
2022-12-28T19:50:23.322Z,8.95
2022-12-28T19:52:44.736Z,9.00
2022-12-28T19:55:06.490Z,8.94
2022-12-28T19:57:29.426Z,9.21
2022-12-28T19:59:50.882Z,9.28
2022-12-28T20:02:12.430Z,9.07
2022-12-28T20:04:34.304Z,9.03
2022-12-28T20:06:55.769Z,9.09
2022-12-28T20:09:17.204Z,9.15
2022-12-28T20:11:38.859Z,9.09
2022-12-28T20:14:03.162Z,9.10
2022-12-28T20:16:26.801Z,8.96
2022-12-28T20:18:49.382Z,8.98
2022-12-28T20:21:20.206Z,9.01
2022-12-28T20:23:42.110Z,8.99
2022-12-28T20:26:03.844Z,8.98
2022-12-28T20:28:25.300Z,8.98
2022-12-28T20:30:49.674Z,8.92
2022-12-28T20:33:11.154Z,8.87
2022-12-28T20:35:32.607Z,8.96
2022-12-28T20:37:54.041Z,8.86
2022-12-28T20:40:15.619Z,9.02
2022-12-28T20:42:55.790Z,9.32
2022-12-28T20:45:17.303Z,9.13
2022-12-28T20:47:38.753Z,9.12
2022-12-28T20:50:00.209Z,9.20
2022-12-28T20:52:21.694Z,9.24
2022-12-28T20:54:43.156Z,9.31
2022-12-28T20:57:04.642Z,9.38
2022-12-28T20:59:26.341Z,9.37
2022-12-28T21:01:47.973Z,9.28
2022-12-28T21:04:10.168Z,9.22
2022-12-28T21:06:31.939Z,9.26
2022-12-28T21:08:53.386Z,9.37
2022-12-28T21:11:14.945Z,9.43
2022-12-28T21:13:42.214Z,9.46
2022-12-28T21:16:05.981Z,9.30
2022-12-28T21:18:27.505Z,9.23
2022-12-28T21:20:55.538Z,9.27
2022-12-28T21:23:17.649Z,9.30
2022-12-28T21:25:39.197Z,9.47
2022-12-28T21:28:00.720Z,9.31
2022-12-28T21:30:22.217Z,9.29
2022-12-28T21:32:43.742Z,9.40
2022-12-28T21:35:05.564Z,9.49
2022-12-28T21:37:36.087Z,9.46
2022-12-28T21:39:57.556Z,9.61
2022-12-28T21:42:18.984Z,9.63
2022-12-28T21:44:40.459Z,9.69
2022-12-28T21:47:01.941Z,9.69
2022-12-28T21:49:23.416Z,9.75
2022-12-28T21:51:45.600Z,9.89
2022-12-28T21:54:11.706Z,9.98
2022-12-28T21:56:35.125Z,9.82
2022-12-28T21:58:57.687Z,9.85
2022-12-28T22:01:37.935Z,9.89
2022-12-28T22:04:18.120Z,9.85
2022-12-28T22:06:39.601Z,10.07
2022-12-28T22:09:19.498Z,10.01
2022-12-28T22:11:59.707Z,9.87
2022-12-28T22:14:21.622Z,10.02
2022-12-28T22:16:43.172Z,9.89
2022-12-28T22:19:05.041Z,9.94
2022-12-28T22:21:27.688Z,10.01
2022-12-28T22:23:49.206Z,9.94
2022-12-28T22:26:10.722Z,9.84
2022-12-28T22:28:32.428Z,9.94
2022-12-28T22:30:53.877Z,9.87
2022-12-28T22:33:15.316Z,9.78
2022-12-28T22:35:36.789Z,9.89
2022-12-28T22:37:58.441Z,10.02
2022-12-28T22:40:20.004Z,9.93
2022-12-28T22:42:47.117Z,9.94
2022-12-28T22:45:11.194Z,10.00
2022-12-28T22:47:32.623Z,10.06
2022-12-28T22:49:54.624Z,9.96
2022-12-28T22:52:16.065Z,9.98
2022-12-28T22:54:37.775Z,10.04
2022-12-28T22:56:59.299Z,10.08
2022-12-28T22:59:20.751Z,10.10
2022-12-28T23:01:43.603Z,10.13
2022-12-28T23:04:05.874Z,10.19
2022-12-28T23:06:27.398Z,10.18
2022-12-28T23:08:48.837Z,10.13
2022-12-28T23:11:34.507Z,10.21
2022-12-28T23:14:17.597Z,10.19
2022-12-28T23:16:39.067Z,10.11
2022-12-28T23:19:19.473Z,10.04
2022-12-28T23:21:59.677Z,9.95
2022-12-28T23:24:39.721Z,9.82
2022-12-28T23:27:19.922Z,10.02
2022-12-28T23:29:41.538Z,10.02
2022-12-28T23:32:03.178Z,9.98
2022-12-28T23:34:24.754Z,9.99
2022-12-28T23:36:46.207Z,9.94
2022-12-28T23:39:07.635Z,10.03
2022-12-28T23:41:47.597Z,10.04
2022-12-28T23:44:09.032Z,9.91
2022-12-28T23:46:30.565Z,9.94
2022-12-28T23:48:52.075Z,9.93
2022-12-28T23:51:13.602Z,9.80
2022-12-28T23:53:35.071Z,9.92
2022-12-28T23:55:58.471Z,9.90
2022-12-28T23:58:19.933Z,9.80
